Time;durP1;ratioP1;P1;durP2;ratioP2;P2;SDS_P1;SDS_P2;PMS_P1;PMS_P2;Temp;Humidity;BMP_temperature;BMP_pressure;BME280_temperature;BME280_humidity;BME280_pressure;Samples;Min_cycle;Max_cycle;Signal;HPM_P1;HPM_P2
2024/04/08 00:00:48;;;;;;;2.30;1.60;;;16.30;99.90;;;;;;4978752;28;20129;-88
2024/04/08 00:03:13;;;;;;;2.03;1.50;;;16.30;99.90;;;;;;4977929;28;20033;-89
2024/04/08 00:05:39;;;;;;;4.20;1.95;;;16.30;99.90;;;;;;4978096;28;20026;-87
2024/04/08 00:08:05;;;;;;;2.72;1.52;;;16.30;99.90;;;;;;4978555;28;20030;-88
2024/04/08 00:10:31;;;;;;;2.42;1.30;;;16.30;99.90;;;;;;4979490;28;20033;-88
2024/04/08 00:12:59;;;;;;;3.13;1.58;;;16.30;99.90;;;;;;5000659;28;20043;-89
2024/04/08 00:15:24;;;;;;;3.08;1.55;;;16.30;99.90;;;;;;5001335;28;20010;-88
2024/04/08 00:17:50;;;;;;;1.92;1.40;;;16.30;99.90;;;;;;5001338;28;20019;-87
2024/04/08 00:20:16;;;;;;;2.72;1.55;;;16.30;99.90;;;;;;5001079;28;20037;-87
2024/04/08 00:22:42;;;;;;;2.47;1.40;;;16.30;99.90;;;;;;5017424;28;20021;-87
2024/04/08 00:25:09;;;;;;;2.55;1.30;;;16.30;99.90;;;;;;5001494;28;20090;-87
2024/04/08 00:27:35;;;;;;;2.80;1.38;;;16.30;99.90;;;;;;5000306;28;20027;-87
2024/04/08 00:30:03;;;;;;;1.92;1.40;;;16.30;99.90;;;;;;4998664;28;20046;-88
2024/04/08 00:32:29;;;;;;;3.95;1.65;;;16.20;99.90;;;;;;5011722;28;20022;-88
2024/04/08 00:34:55;;;;;;;5.15;2.05;;;16.20;99.90;;;;;;4981523;28;20489;-88
2024/04/08 00:37:20;;;;;;;3.65;1.60;;;16.20;99.90;;;;;;4978026;28;20164;-88
2024/04/08 00:39:46;;;;;;;2.83;1.40;;;16.20;99.90;;;;;;4993708;28;20030;-87
2024/04/08 00:42:12;;;;;;;3.45;1.55;;;16.20;99.90;;;;;;4994453;28;20065;-88
2024/04/08 00:44:42;;;;;;;3.35;1.38;;;16.20;99.90;;;;;;4977322;28;20081;-89
2024/04/08 00:47:10;;;;;;;2.53;1.30;;;16.20;99.90;;;;;;4978239;28;20422;-87
2024/04/08 00:49:39;;;;;;;2.63;1.25;;;16.10;99.90;;;;;;4996687;28;20458;-87
2024/04/08 00:52:06;;;;;;;2.45;1.30;;;16.10;99.90;;;;;;4997889;28;20057;-88
2024/04/08 00:54:32;;;;;;;3.78;1.88;;;16.10;99.90;;;;;;4980856;28;20477;-87
2024/04/08 00:57:02;;;;;;;2.05;1.40;;;16.10;99.90;;;;;;4980925;28;20158;-88
2024/04/08 00:59:36;;;;;;;2.17;1.15;;;16.10;99.90;;;;;;4984934;28;20027;-87
2024/04/08 01:02:04;;;;;;;2.35;1.50;;;16.10;99.90;;;;;;4984963;28;20117;-88
2024/04/08 01:04:36;;;;;;;4.65;1.35;;;16.10;99.90;;;;;;4998217;28;20101;-89
2024/04/08 01:07:02;;;;;;;3.40;1.33;;;16.00;99.90;;;;;;4998029;28;20153;-88
2024/04/08 01:09:28;;;;;;;4.28;1.60;;;16.00;99.90;;;;;;4980230;28;20038;-87
2024/04/08 01:11:56;;;;;;;2.45;1.40;;;16.00;99.90;;;;;;4979804;28;20125;-89
2024/04/08 01:14:22;;;;;;;1.83;0.90;;;16.00;99.90;;;;;;4980246;28;20390;-87
2024/04/08 01:16:47;;;;;;;2.08;1.10;;;16.00;99.90;;;;;;4979964;28;20037;-87
2024/04/08 01:19:18;;;;;;;2.40;1.30;;;16.00;99.90;;;;;;4980285;28;20022;-87
2024/04/08 01:21:45;;;;;;;3.83;1.23;;;15.90;99.90;;;;;;4980579;28;20054;-87
2024/04/08 01:24:12;;;;;;;2.47;1.20;;;15.90;99.90;;;;;;4964596;28;20034;-88
2024/04/08 01:26:37;;;;;;;2.05;1.00;;;16.00;99.90;;;;;;4998807;28;20027;-89
2024/04/08 01:29:03;;;;;;;2.25;1.27;;;15.90;99.90;;;;;;4982673;28;20030;-89
2024/04/08 01:31:28;;;;;;;1.60;0.98;;;15.90;99.90;;;;;;4964874;28;20030;-89
2024/04/08 01:33:54;;;;;;;2.10;1.40;;;15.90;99.90;;;;;;4980361;28;20073;-87
2024/04/08 01:36:20;;;;;;;1.00;0.88;;;15.90;99.90;;;;;;4985448;28;20022;-87
2024/04/08 01:38:45;;;;;;;2.20;1.45;;;15.90;99.90;;;;;;4997679;28;20081;-88
2024/04/08 01:41:11;;;;;;;1.88;0.95;;;15.90;99.90;;;;;;4980567;28;20038;-88
2024/04/08 01:43:37;;;;;;;3.83;1.23;;;15.90;99.90;;;;;;4980939;28;20026;-87
2024/04/08 01:46:02;;;;;;;3.03;1.13;;;15.80;99.90;;;;;;4982441;28;20034;-88
2024/04/08 01:48:28;;;;;;;1.88;1.30;;;15.80;99.90;;;;;;4980483;28;20027;-88
2024/04/08 01:50:54;;;;;;;2.70;1.15;;;15.80;99.90;;;;;;4980534;28;20485;-88
2024/04/08 01:53:19;;;;;;;2.35;1.40;;;15.80;99.90;;;;;;4999491;28;20033;-88
2024/04/08 01:55:45;;;;;;;1.38;0.98;;;15.70;99.90;;;;;;5011838;28;20057;-87
2024/04/08 01:58:11;;;;;;;2.03;1.27;;;15.80;99.90;;;;;;5002156;28;20021;-86
2024/04/08 02:00:36;;;;;;;1.83;1.15;;;15.70;99.90;;;;;;4985366;28;20109;-85
2024/04/08 02:03:02;;;;;;;2.10;1.20;;;15.70;99.90;;;;;;5020047;28;20038;-89
2024/04/08 02:05:28;;;;;;;2.50;1.08;;;15.70;99.90;;;;;;5003197;28;20046;-87
2024/04/08 02:07:53;;;;;;;2.22;1.20;;;15.70;99.90;;;;;;5001864;28;20034;-89
2024/04/08 02:10:19;;;;;;;2.00;1.20;;;15.70;99.90;;;;;;4993167;28;20034;-88
2024/04/08 02:12:46;;;;;;;2.40;1.30;;;15.60;99.90;;;;;;4979724;28;20467;-87
2024/04/08 02:15:12;;;;;;;2.30;1.30;;;15.60;99.90;;;;;;4997395;28;20414;-88
2024/04/08 02:17:38;;;;;;;3.83;1.48;;;15.60;99.90;;;;;;4980094;28;20038;-86
2024/04/08 02:20:06;;;;;;;2.92;1.85;;;15.60;99.90;;;;;;4995639;28;20077;-88
2024/04/08 02:22:32;;;;;;;3.28;1.50;;;15.60;99.90;;;;;;4979305;28;20058;-87
2024/04/08 02:24:58;;;;;;;2.25;1.60;;;15.60;99.90;;;;;;4996246;28;20030;-88
2024/04/08 02:27:23;;;;;;;2.97;1.30;;;15.60;99.90;;;;;;4977761;28;20130;-89
2024/04/08 02:29:49;;;;;;;2.35;1.27;;;15.60;99.90;;;;;;4996142;28;20085;-88
2024/04/08 02:32:14;;;;;;;2.70;1.35;;;15.60;99.90;;;;;;4996176;28;20026;-88
2024/04/08 02:34:40;;;;;;;3.20;1.80;;;15.60;99.90;;;;;;4978596;28;20382;-89
2024/04/08 02:37:10;;;;;;;3.67;1.80;;;15.60;99.90;;;;;;4978209;28;20026;-88
2024/04/08 02:39:35;;;;;;;3.95;1.75;;;15.60;99.90;;;;;;4978385;28;20030;-87
2024/04/08 02:42:05;;;;;;;4.38;1.60;;;15.50;99.90;;;;;;4978837;28;20030;-88
2024/04/08 02:44:34;;;;;;;1.90;1.63;;;15.50;99.90;;;;;;4994704;28;20034;-88
2024/04/08 02:47:00;;;;;;;4.22;1.60;;;15.50;99.90;;;;;;4995045;28;20027;-87
2024/04/08 02:49:33;;;;;;;2.65;1.50;;;15.50;99.90;;;;;;4996025;28;20031;-88
2024/04/08 02:51:59;;;;;;;2.65;1.48;;;15.50;99.90;;;;;;4978398;28;20042;-88
2024/04/08 02:54:24;;;;;;;2.42;1.63;;;15.50;99.90;;;;;;4978426;28;20081;-88
2024/04/08 02:56:50;;;;;;;3.03;1.52;;;15.50;99.90;;;;;;4978260;28;20022;-87
2024/04/08 02:59:16;;;;;;;1.92;1.42;;;15.50;99.90;;;;;;4978809;28;20084;-89
2024/04/08 03:01:44;;;;;;;2.40;1.70;;;15.50;99.90;;;;;;4978159;28;20111;-87
2024/04/08 03:04:10;;;;;;;2.42;1.60;;;15.50;99.90;;;;;;4994792;28;20486;-87
2024/04/08 03:06:36;;;;;;;5.43;1.70;;;15.40;99.90;;;;;;4978581;28;20030;-89
2024/04/08 03:09:04;;;;;;;2.05;1.45;;;15.40;99.90;;;;;;4994319;28;20029;-86
2024/04/08 03:11:32;;;;;;;3.03;1.73;;;15.40;99.90;;;;;;4978425;28;20037;-89
2024/04/08 03:13:58;;;;;;;3.05;1.58;;;15.40;99.90;;;;;;4978886;28;20030;-86
2024/04/08 03:16:24;;;;;;;4.00;2.05;;;15.40;99.90;;;;;;4978671;28;20019;-89
2024/04/08 03:18:50;;;;;;;3.45;1.80;;;15.50;99.90;;;;;;5007058;28;20045;-89
2024/04/08 03:21:16;;;;;;;3.53;2.05;;;15.50;99.90;;;;;;5013604;28;20058;-87
2024/04/08 03:23:43;;;;;;;3.38;1.85;;;15.50;99.90;;;;;;5011250;28;20046;-87
2024/04/08 03:26:12;;;;;;;2.40;1.90;;;15.50;99.90;;;;;;4988289;28;20038;-88
2024/04/08 03:28:38;;;;;;;3.83;1.83;;;15.50;99.90;;;;;;5005286;28;20027;-89
2024/04/08 03:31:08;;;;;;;2.83;1.98;;;15.50;99.90;;;;;;4983026;28;20037;-88
2024/04/08 03:33:34;;;;;;;3.77;2.13;;;15.50;99.90;;;;;;4979653;28;20030;-88
2024/04/08 03:36:07;;;;;;;3.13;1.98;;;15.50;99.90;;;;;;4996268;28;20023;-87
2024/04/08 03:38:33;;;;;;;2.63;2.17;;;15.50;99.90;;;;;;4996541;28;20455;-87
2024/04/08 03:41:04;;;;;;;3.55;1.98;;;15.50;99.90;;;;;;4979497;28;20041;-87
2024/04/08 03:43:33;;;;;;;3.90;2.10;;;15.50;99.90;;;;;;5018573;28;20015;-87
2024/04/08 03:45:59;;;;;;;3.50;2.20;;;15.50;99.90;;;;;;5018470;28;20022;-88
2024/04/08 03:48:26;;;;;;;3.22;2.22;;;15.50;99.90;;;;;;5018399;28;20042;-88
2024/04/08 03:50:52;;;;;;;3.92;2.40;;;15.50;99.90;;;;;;4999362;28;20031;-88
2024/04/08 03:53:18;;;;;;;3.55;1.92;;;15.50;99.90;;;;;;4967716;28;20509;-88
2024/04/08 03:55:45;;;;;;;3.42;1.95;;;15.50;99.90;;;;;;4979315;28;20532;-88
2024/04/08 03:58:11;;;;;;;3.00;2.03;;;15.50;99.90;;;;;;4995250;28;20110;-89
2024/04/08 04:00:36;;;;;;;4.22;2.42;;;15.50;99.90;;;;;;4996555;28;20062;-88
2024/04/08 04:03:02;;;;;;;3.90;2.20;;;15.50;99.90;;;;;;4979167;28;20088;-89
2024/04/08 04:05:30;;;;;;;3.08;2.25;;;15.50;99.90;;;;;;4978407;28;20122;-89
2024/04/08 04:07:56;;;;;;;2.83;2.20;;;15.50;99.90;;;;;;4978801;28;20117;-89
2024/04/08 04:10:22;;;;;;;3.10;2.30;;;15.50;99.90;;;;;;4994897;28;20453;-89
2024/04/08 04:12:48;;;;;;;2.40;1.73;;;15.50;99.90;;;;;;4978606;28;20022;-88
2024/04/08 04:15:14;;;;;;;2.78;2.10;;;15.50;99.90;;;;;;4978446;28;20391;-88
2024/04/08 04:17:40;;;;;;;4.63;1.90;;;15.50;99.90;;;;;;4996060;28;20450;-89
2024/04/08 04:20:09;;;;;;;4.05;2.20;;;15.50;99.90;;;;;;4995713;28;20533;-89
2024/04/08 04:22:35;;;;;;;4.57;2.10;;;15.50;99.90;;;;;;4980904;28;20073;-88
2024/04/08 04:25:04;;;;;;;3.85;2.13;;;15.40;99.90;;;;;;4997689;28;20038;-89
2024/04/08 04:27:33;;;;;;;3.97;2.50;;;15.40;99.90;;;;;;4981337;28;20497;-87
2024/04/08 04:29:59;;;;;;;5.68;2.30;;;15.40;99.90;;;;;;4981747;28;20061;-88
2024/04/08 04:33:18;;;;;;;;;;;;;;;;;;;;;
2024/04/08 04:35:56;;;;;;;4.45;2.40;;;15.40;99.90;;;;;;4999051;28;20040;-91
2024/04/08 04:38:22;;;;;;;2.95;2.15;;;15.40;99.90;;;;;;4981866;28;20121;-91
2024/04/08 04:41:02;;;;;;;4.72;2.40;;;15.40;99.90;;;;;;4982373;28;20116;-92
2024/04/08 04:43:29;;;;;;;4.45;2.33;;;15.40;99.90;;;;;;4982821;28;20030;-92
2024/04/08 04:45:58;;;;;;;3.45;2.00;;;15.40;99.90;;;;;;4982967;28;20462;-93
2024/04/08 04:48:35;;;;;;;4.28;2.20;;;15.40;99.90;;;;;;4982289;28;20022;-92
2024/04/08 04:51:07;;;;;;;3.92;2.15;;;15.40;99.90;;;;;;4982263;28;20090;-90
2024/04/08 04:53:33;;;;;;;8.60;2.50;;;15.40;99.90;;;;;;4982347;28;20117;-90
2024/04/08 04:55:58;;;;;;;4.22;2.10;;;15.30;99.90;;;;;;4981111;28;20050;-90
2024/04/08 04:58:29;;;;;;;2.33;2.03;;;15.40;99.90;;;;;;4982381;28;20026;-91
2024/04/08 05:01:05;;;;;;;;;;;;;;;;;;;;;
2024/04/08 05:03:33;;;;;;;3.20;2.30;;;15.30;99.90;;;;;;5000291;28;20031;-87
2024/04/08 05:06:00;;;;;;;5.15;2.65;;;15.30;99.90;;;;;;4998840;28;20026;-89
2024/04/08 05:08:26;;;;;;;3.85;2.20;;;15.30;99.90;;;;;;5002522;28;20027;-93
2024/04/08 05:10:54;;;;;;;3.17;1.90;;;15.30;99.90;;;;;;4997608;28;20025;-91
2024/04/08 05:13:20;;;;;;;4.47;2.30;;;15.40;99.90;;;;;;4988034;28;20093;-89
2024/04/08 05:16:01;;;;;;;3.60;2.30;;;15.40;99.90;;;;;;5006258;28;20030;-89
2024/04/08 05:18:28;;;;;;;4.05;2.30;;;15.30;99.90;;;;;;4995389;28;20422;-90
2024/04/08 05:21:04;;;;;;;5.10;2.10;;;15.40;99.90;;;;;;4989033;28;20054;-94
2024/04/08 05:26:08;;;;;;;3.85;2.30;;;15.30;99.90;;;;;;5269128;23;20042;-89
2024/04/08 05:28:36;;;;;;;3.55;2.63;;;15.30;99.90;;;;;;4993460;28;20014;-93
2024/04/08 05:31:06;;;;;;;4.57;2.40;;;15.30;99.90;;;;;;5016755;28;20038;-87
2024/04/08 05:33:32;;;;;;;3.60;2.30;;;15.30;99.90;;;;;;5035572;28;20033;-89
2024/04/08 05:35:58;;;;;;;3.03;2.47;;;15.30;99.90;;;;;;4985058;28;20033;-92
2024/04/08 05:38:24;;;;;;;4.00;2.20;;;15.30;99.90;;;;;;5005581;28;20052;-92
2024/04/08 05:40:50;;;;;;;5.15;2.65;;;15.30;99.90;;;;;;5018587;28;20017;-92
2024/04/08 05:43:15;;;;;;;3.30;2.50;;;15.30;99.90;;;;;;5023315;28;20100;-92
2024/04/08 05:45:42;;;;;;;3.25;2.35;;;15.30;99.90;;;;;;5010339;28;20029;-93
2024/04/08 05:48:08;;;;;;;5.30;2.70;;;15.30;99.90;;;;;;5005561;28;20080;-91
2024/04/08 05:50:34;;;;;;;3.00;2.30;;;15.30;99.90;;;;;;5017715;28;20030;-93
2024/04/08 05:53:03;;;;;;;5.05;2.78;;;15.40;99.90;;;;;;4997558;28;20046;-92
2024/04/08 05:55:33;;;;;;;5.13;2.42;;;15.40;99.90;;;;;;4997764;28;20050;-90
2024/04/08 05:57:59;;;;;;;4.75;2.58;;;15.40;99.90;;;;;;5031462;28;20050;-90
2024/04/08 06:00:25;;;;;;;6.15;2.70;;;15.40;99.90;;;;;;5024070;28;20075;-90
2024/04/08 06:02:52;;;;;;;5.28;2.42;;;15.40;99.90;;;;;;4982073;28;20038;-92
2024/04/08 06:05:19;;;;;;;4.13;2.60;;;15.40;99.90;;;;;;4990026;28;20030;-91
2024/04/08 06:07:51;;;;;;;5.90;3.20;;;15.50;99.90;;;;;;5000252;28;20029;-90
2024/04/08 06:10:18;;;;;;;4.95;2.60;;;15.40;99.90;;;;;;5000410;28;20045;-91
2024/04/08 06:12:46;;;;;;;3.10;2.28;;;15.50;99.90;;;;;;5000556;28;20026;-93
2024/04/08 06:15:13;;;;;;;4.13;2.30;;;15.50;99.90;;;;;;5022023;28;20030;-90
2024/04/08 06:17:39;;;;;;;4.85;2.95;;;15.50;99.90;;;;;;5018282;28;20080;-90
2024/04/08 06:20:11;;;;;;;4.38;2.75;;;15.50;99.90;;;;;;5009747;28;20021;-91
2024/04/08 06:22:37;;;;;;;5.72;2.40;;;15.40;99.90;;;;;;4995766;28;20033;-92
2024/04/08 06:25:09;;;;;;;3.85;2.15;;;15.30;99.90;;;;;;4998391;28;20490;-90
2024/04/08 06:27:35;;;;;;;3.35;2.35;;;15.30;99.90;;;;;;5001493;28;20030;-91
2024/04/08 06:30:11;;;;;;;5.28;2.70;;;15.30;99.90;;;;;;5001753;28;20061;-91
2024/04/08 06:32:39;;;;;;;2.65;2.17;;;15.40;99.90;;;;;;5013343;28;20042;-91
2024/04/08 06:35:05;;;;;;;3.55;2.20;;;15.40;99.90;;;;;;5020948;28;20032;-91
2024/04/08 06:38:20;;;;;;;2.75;2.00;;;15.50;99.90;;;;;;5021594;28;20018;-90
2024/04/08 06:40:55;;;;;;;3.35;2.22;;;15.50;99.90;;;;;;4989041;28;20034;-91
2024/04/08 06:43:24;;;;;;;3.83;2.42;;;15.60;99.90;;;;;;4985658;28;20030;-89
2024/04/08 06:45:57;;;;;;;3.42;2.30;;;15.70;99.90;;;;;;5008960;28;20022;-91
2024/04/08 06:48:23;;;;;;;3.53;2.72;;;15.70;99.90;;;;;;4995600;28;20035;-90
2024/04/08 06:50:52;;;;;;;2.88;1.88;;;15.70;99.90;;;;;;4998593;28;20038;-91
2024/04/08 06:53:22;;;;;;;3.55;2.38;;;15.80;99.90;;;;;;5001699;28;20038;-92
2024/04/08 06:55:47;;;;;;;3.53;2.00;;;15.80;99.90;;;;;;4998543;28;20021;-91
2024/04/08 06:58:19;;;;;;;4.00;2.05;;;15.90;99.90;;;;;;4999510;28;20108;-91
2024/04/08 07:00:51;;;;;;;4.13;2.22;;;16.00;99.90;;;;;;5017474;28;20069;-91
2024/04/08 07:03:16;;;;;;;3.40;1.83;;;16.10;99.90;;;;;;5000339;28;20037;-92
2024/04/08 07:05:46;;;;;;;2.67;2.20;;;16.10;99.90;;;;;;5030879;28;20030;-90
2024/04/08 07:08:14;;;;;;;3.13;2.08;;;16.10;99.90;;;;;;5038017;28;20025;-88
2024/04/08 07:10:40;;;;;;;2.17;1.67;;;16.10;99.90;;;;;;5048509;28;20036;-90
2024/04/08 07:13:06;;;;;;;2.78;1.90;;;16.20;99.90;;;;;;5004586;28;20030;-92
2024/04/08 07:15:35;;;;;;;3.95;1.65;;;16.20;99.90;;;;;;5011172;28;20165;-90
2024/04/08 07:18:03;;;;;;;3.17;1.80;;;16.20;99.90;;;;;;4999992;28;20485;-92
2024/04/08 07:20:32;;;;;;;2.85;1.80;;;16.20;99.90;;;;;;4999349;28;20033;-91
2024/04/08 07:22:58;;;;;;;3.90;2.13;;;16.30;99.90;;;;;;4989424;28;20062;-91
2024/04/08 07:25:26;;;;;;;5.47;2.35;;;16.30;99.90;;;;;;4995412;28;20050;-91
2024/04/08 07:27:51;;;;;;;4.18;2.17;;;16.30;99.90;;;;;;4980209;28;20026;-91
2024/04/08 07:30:17;;;;;;;2.97;2.08;;;16.30;99.90;;;;;;5011469;28;20097;-91
2024/04/08 07:32:45;;;;;;;3.78;2.22;;;16.40;99.90;;;;;;5016186;28;20038;-92
2024/04/08 07:35:19;;;;;;;3.72;2.03;;;16.40;99.90;;;;;;4993612;28;20122;-90
2024/04/08 07:37:45;;;;;;;1.70;1.55;;;16.40;99.90;;;;;;4983248;28;20034;-91
2024/04/08 07:40:10;;;;;;;3.25;2.00;;;16.50;99.90;;;;;;5016579;28;20025;-90
2024/04/08 07:42:36;;;;;;;4.32;2.05;;;16.50;99.90;;;;;;4996745;28;20042;-91
2024/04/08 07:45:02;;;;;;;2.67;2.20;;;16.60;99.90;;;;;;4998850;28;20037;-92
2024/04/08 07:47:27;;;;;;;4.60;2.22;;;16.60;99.90;;;;;;4999215;28;20030;-90
2024/04/08 07:49:59;;;;;;;2.58;1.95;;;16.60;99.90;;;;;;5019032;28;20038;-91
2024/04/08 07:52:27;;;;;;;3.88;2.33;;;16.70;99.90;;;;;;4989658;28;20038;-93
2024/04/08 07:54:53;;;;;;;3.55;2.28;;;16.70;99.90;;;;;;4998227;28;20068;-90
2024/04/08 07:57:19;;;;;;;3.42;2.38;;;16.70;99.90;;;;;;5001898;28;20037;-89
2024/04/08 07:59:45;;;;;;;4.72;2.20;;;16.80;99.90;;;;;;5002450;28;20381;-91
2024/04/08 08:02:10;;;;;;;4.05;2.38;;;16.80;99.90;;;;;;5019851;28;20550;-91
2024/04/08 08:04:38;;;;;;;4.28;2.33;;;16.90;99.90;;;;;;5002193;28;20026;-91
2024/04/08 08:07:04;;;;;;;2.80;1.98;;;16.90;99.90;;;;;;4999018;28;20463;-90
2024/04/08 08:09:30;;;;;;;5.75;2.38;;;17.00;99.90;;;;;;4999010;28;20032;-91
2024/04/08 08:12:00;;;;;;;3.75;2.50;;;17.00;99.90;;;;;;4989183;28;20025;-91
2024/04/08 08:14:26;;;;;;;;;;;17.10;99.90;;;;;;5021758;28;20032;-92
2024/04/08 08:16:54;;;;;;;4.38;2.20;;;17.10;99.90;;;;;;5017990;28;19905;-92
2024/04/08 08:19:20;;;;;;;3.88;2.20;;;17.00;99.90;;;;;;5000820;28;20038;-91
2024/04/08 08:21:46;;;;;;;4.25;1.98;;;17.00;99.90;;;;;;5001049;28;20038;-90
2024/04/08 08:24:14;;;;;;;4.28;2.10;;;17.10;99.90;;;;;;5001677;28;20057;-89
2024/04/08 08:26:39;;;;;;;5.25;2.60;;;17.00;99.90;;;;;;4998055;28;20053;-92
2024/04/08 08:29:05;;;;;;;4.55;2.30;;;17.10;99.90;;;;;;5011141;28;20112;-90
2024/04/08 08:31:31;;;;;;;3.22;2.20;;;17.10;99.90;;;;;;4981714;28;20023;-91
2024/04/08 08:34:00;;;;;;;4.53;2.00;;;17.10;99.90;;;;;;4999080;28;20085;-91
2024/04/08 08:36:25;;;;;;;4.80;2.10;;;17.10;99.90;;;;;;4998252;28;20045;-90
2024/04/08 08:38:53;;;;;;;4.90;2.22;;;17.20;99.90;;;;;;4982043;28;20022;-91
2024/04/08 08:41:26;;;;;;;2.33;1.80;;;17.30;99.90;;;;;;4998274;28;20031;-90
2024/04/08 08:43:55;;;;;;;4.20;1.65;;;17.30;99.90;;;;;;5012135;28;20040;-90
2024/04/08 08:46:23;;;;;;;2.67;1.50;;;17.30;99.90;;;;;;4998734;28;20026;-90
2024/04/08 08:48:53;;;;;;;2.78;1.70;;;17.40;99.90;;;;;;5004487;28;20073;-90
2024/04/08 08:51:24;;;;;;;3.85;1.63;;;17.40;99.90;;;;;;4988411;28;20021;-91
2024/04/08 08:53:50;;;;;;;3.40;1.92;;;17.40;99.90;;;;;;5021477;28;20021;-90
2024/04/08 08:56:19;;;;;;;3.67;1.80;;;17.40;99.90;;;;;;5020444;28;20026;-91
2024/04/08 08:58:53;;;;;;;6.70;2.10;;;17.50;99.90;;;;;;5018533;28;20070;-90
2024/04/08 09:01:19;;;;;;;3.67;1.95;;;17.50;99.90;;;;;;4982413;28;20026;-90
2024/04/08 09:03:47;;;;;;;2.78;1.88;;;17.50;99.90;;;;;;4995735;28;20022;-92
2024/04/08 09:06:12;;;;;;;3.97;2.20;;;17.70;99.90;;;;;;5004318;28;20395;-91
2024/04/08 09:08:38;;;;;;;4.20;2.13;;;17.70;99.90;;;;;;4989205;28;20070;-90
2024/04/08 09:11:08;;;;;;;3.88;1.98;;;17.80;99.90;;;;;;5005818;28;20106;-90
2024/04/08 09:13:34;;;;;;;2.50;1.80;;;17.90;99.90;;;;;;5007626;28;20109;-91
2024/04/08 09:16:02;;;;;;;3.85;1.95;;;17.90;99.90;;;;;;5002003;28;20029;-91
2024/04/08 09:18:28;;;;;;;2.72;1.95;;;18.00;99.90;;;;;;4999033;28;20043;-89
2024/04/08 09:20:53;;;;;;;2.47;1.70;;;18.10;99.90;;;;;;5000984;28;20022;-90
2024/04/08 09:23:19;;;;;;;3.35;1.83;;;18.10;99.90;;;;;;5000195;28;20028;-91
2024/04/08 09:25:48;;;;;;;2.15;1.67;;;18.20;99.90;;;;;;5018003;28;20050;-90
2024/04/08 09:28:14;;;;;;;2.63;2.22;;;18.30;99.90;;;;;;5018519;28;20390;-89
2024/04/08 09:30:40;;;;;;;4.22;2.33;;;18.40;99.90;;;;;;5001648;28;20018;-91
2024/04/08 09:33:09;;;;;;;5.10;2.75;;;18.40;99.90;;;;;;4990123;28;20022;-92
2024/04/08 09:35:42;;;;;;;5.95;3.50;;;18.50;99.90;;;;;;5024063;28;20029;-90
2024/04/08 09:38:09;;;;;;;6.07;4.68;;;18.50;99.90;;;;;;5041195;28;20030;-90
2024/04/08 09:40:37;;;;;;;7.30;4.70;;;18.60;99.90;;;;;;5021711;28;20046;-90
2024/04/08 09:43:03;;;;;;;7.63;5.20;;;18.60;99.90;;;;;;5019375;28;20038;-92
2024/04/08 09:45:29;;;;;;;7.88;5.78;;;18.70;99.90;;;;;;5016362;28;20026;-90
2024/04/08 09:48:05;;;;;;;6.78;5.47;;;18.70;99.90;;;;;;5026869;28;20389;-93
2024/04/08 09:50:40;;;;;;;7.68;5.15;;;18.70;99.90;;;;;;4999940;28;20077;-93
2024/04/08 09:53:09;;;;;;;8.05;5.50;;;18.70;99.90;;;;;;5000107;28;20123;-90
2024/04/08 09:55:38;;;;;;;9.35;5.78;;;18.80;99.90;;;;;;5017427;28;20048;-91
2024/04/08 09:58:08;;;;;;;7.18;5.10;;;18.80;99.90;;;;;;5017657;28;20102;-91
2024/04/08 10:00:35;;;;;;;6.33;5.30;;;18.80;99.90;;;;;;5000923;28;20022;-91
2024/04/08 10:03:15;;;;;;;7.15;5.50;;;18.80;99.90;;;;;;5000911;28;20026;-90
2024/04/08 10:05:41;;;;;;;7.30;5.50;;;18.80;99.90;;;;;;5016527;28;20068;-91
2024/04/08 10:08:08;;;;;;;8.30;5.40;;;18.80;99.90;;;;;;4999608;28;20022;-90
2024/04/08 10:10:35;;;;;;;7.15;4.55;;;18.90;99.90;;;;;;4999413;28;20018;-89
2024/04/08 10:13:07;;;;;;;7.50;5.35;;;19.00;99.90;;;;;;5004340;28;20029;-90
2024/04/08 10:15:34;;;;;;;6.60;4.68;;;19.00;99.90;;;;;;5035901;28;20036;-90
2024/04/08 10:18:05;;;;;;;6.60;5.45;;;19.10;99.90;;;;;;5016490;28;20425;-89
2024/04/08 10:20:33;;;;;;;6.50;5.18;;;19.20;99.90;;;;;;5016650;28;20026;-88
2024/04/08 10:23:00;;;;;;;7.03;6.32;;;19.20;99.90;;;;;;5016926;28;20034;-91
2024/04/08 10:25:47;;;;;;;7.45;6.18;;;19.30;99.90;;;;;;4998910;28;20057;-90
2024/04/08 10:31:35;;;;;;;7.60;6.50;;;19.30;99.90;;;;;;5122333;27;20440;-88
2024/04/08 10:34:01;;;;;;;7.35;6.43;;;19.50;99.90;;;;;;5095752;28;20032;-89
2024/04/08 10:36:35;;;;;;;5.65;5.15;;;19.60;99.90;;;;;;5096727;28;20040;-88
2024/04/08 10:39:01;;;;;;;6.00;5.40;;;19.50;99.90;;;;;;5110267;28;20024;-90
2024/04/08 10:41:29;;;;;;;5.65;5.13;;;19.50;99.90;;;;;;5121077;27;20008;-89
2024/04/08 10:43:54;;;;;;;5.55;4.60;;;19.60;99.90;;;;;;5118527;27;20004;-90
2024/04/08 10:46:21;;;;;;;5.13;4.63;;;19.60;99.90;;;;;;5110483;28;20079;-90
2024/04/08 10:48:47;;;;;;;6.07;4.78;;;19.60;99.90;;;;;;5087792;28;20074;-90
2024/04/08 10:51:22;;;;;;;5.35;4.30;;;19.70;99.90;;;;;;5075109;28;20145;-90
2024/04/08 10:53:47;;;;;;;5.07;4.57;;;19.60;99.90;;;;;;5051700;28;20019;-90
2024/04/08 10:56:15;;;;;;;4.85;3.65;;;19.60;99.90;;;;;;5084791;28;20036;-90
2024/04/08 10:58:41;;;;;;;4.32;3.80;;;19.70;99.90;;;;;;5075007;28;20115;-90
2024/04/08 11:01:10;;;;;;;6.88;4.78;;;19.80;99.90;;;;;;5086229;28;20059;-90
2024/04/08 11:03:45;;;;;;;4.15;3.53;;;19.80;99.90;;;;;;5077955;28;20459;-89
2024/04/08 11:06:13;;;;;;;6.72;3.58;;;19.80;99.90;;;;;;5095174;28;20016;-89
2024/04/08 11:08:41;;;;;;;4.80;3.28;;;19.90;99.90;;;;;;5112593;28;20028;-90
2024/04/08 11:11:09;;;;;;;3.90;3.10;;;20.00;99.90;;;;;;5079844;28;20040;-91
2024/04/08 11:13:38;;;;;;;3.83;3.10;;;20.00;99.90;;;;;;5070608;28;20089;-88
2024/04/08 11:16:07;;;;;;;4.07;3.15;;;20.10;99.90;;;;;;5093844;28;20031;-89
2024/04/08 11:18:41;;;;;;;4.63;3.40;;;20.00;99.90;;;;;;5094252;28;20035;-91
2024/04/08 11:21:08;;;;;;;3.90;3.10;;;20.10;99.90;;;;;;5094252;28;20080;-91
2024/04/08 11:23:42;;;;;;;5.38;3.10;;;20.10;99.90;;;;;;5093939;28;20031;-90
2024/04/08 11:26:11;;;;;;;3.58;2.97;;;20.20;99.90;;;;;;5094341;28;20034;-90
2024/04/08 11:28:39;;;;;;;4.32;2.92;;;20.30;99.90;;;;;;5077144;28;20491;-90
2024/04/08 11:31:07;;;;;;;5.72;3.40;;;20.30;99.80;;;;;;5068106;28;20020;-90
2024/04/08 11:33:35;;;;;;;4.55;3.17;;;20.30;99.50;;;;;;5073626;28;20020;-88
2024/04/08 11:36:04;;;;;;;3.83;2.95;;;20.30;99.60;;;;;;5079359;28;20024;-89
2024/04/08 11:38:32;;;;;;;2.85;2.42;;;20.30;99.60;;;;;;5093792;28;20031;-89
2024/04/08 11:40:59;;;;;;;4.07;2.65;;;20.30;99.60;;;;;;5083929;28;20459;-90
2024/04/08 11:43:27;;;;;;;3.00;2.53;;;20.30;99.50;;;;;;5062745;28;20032;-88
2024/04/08 11:45:55;;;;;;;3.75;2.95;;;20.30;99.50;;;;;;5066929;28;20027;-88
2024/04/08 11:48:23;;;;;;;4.45;2.92;;;20.30;99.40;;;;;;5078440;28;20028;-90
2024/04/08 11:50:48;;;;;;;4.05;2.97;;;20.30;99.40;;;;;;5075498;28;20024;-90
2024/04/08 11:53:14;;;;;;;4.43;3.20;;;20.20;99.30;;;;;;5079867;28;20027;-88
2024/04/08 11:55:45;;;;;;;3.95;3.55;;;20.20;99.20;;;;;;5079993;28;20020;-89
2024/04/08 11:58:11;;;;;;;3.88;3.58;;;20.10;99.10;;;;;;5082302;28;20028;-90
2024/04/08 12:00:36;;;;;;;4.78;4.32;;;20.10;99.10;;;;;;5060313;28;20157;-90
2024/04/08 12:03:02;;;;;;;5.03;4.50;;;20.10;99.10;;;;;;5079417;28;20407;-89
2024/04/08 12:05:28;;;;;;;5.20;4.70;;;20.00;99.20;;;;;;5080117;28;20399;-90
2024/04/08 12:07:55;;;;;;;4.95;3.95;;;20.00;99.20;;;;;;5063234;28;20024;-90
2024/04/08 12:10:24;;;;;;;4.60;3.70;;;20.00;99.20;;;;;;5068378;28;20471;-91
2024/04/08 12:12:50;;;;;;;6.55;4.60;;;20.00;99.20;;;;;;5092290;28;20024;-90
2024/04/08 12:15:19;;;;;;;5.95;4.20;;;20.10;99.20;;;;;;5072037;28;20029;-90
2024/04/08 12:17:47;;;;;;;5.10;3.90;;;20.00;99.20;;;;;;5045612;28;20086;-90
2024/04/08 12:20:16;;;;;;;5.95;4.60;;;20.10;99.20;;;;;;5063432;28;20073;-89
2024/04/08 12:22:51;;;;;;;4.82;4.35;;;20.10;99.10;;;;;;5097826;28;20024;-90
2024/04/08 12:25:16;;;;;;;5.45;4.68;;;20.10;99.10;;;;;;5086024;28;20093;-88
2024/04/08 12:27:42;;;;;;;5.35;4.72;;;20.10;99.00;;;;;;5119364;28;20005;-90
2024/04/08 12:30:10;;;;;;;6.45;4.90;;;20.00;99.00;;;;;;5085256;28;20039;-90
2024/04/08 12:32:36;;;;;;;5.63;4.22;;;20.10;99.00;;;;;;5099974;28;20008;-89
2024/04/08 12:35:02;;;;;;;3.92;3.22;;;20.10;99.00;;;;;;5102558;28;20039;-89
2024/04/08 12:37:27;;;;;;;3.15;2.83;;;20.10;98.80;;;;;;5079611;28;20036;-89
2024/04/08 12:39:56;;;;;;;7.22;2.97;;;20.00;98.80;;;;;;5069263;28;20039;-89
2024/04/08 12:42:24;;;;;;;4.22;2.72;;;20.00;98.70;;;;;;5089280;28;20052;-88
2024/04/08 12:44:49;;;;;;;3.70;2.75;;;19.90;98.70;;;;;;5096179;28;20028;-88
2024/04/08 12:47:23;;;;;;;3.78;2.80;;;19.90;98.80;;;;;;5102621;28;20036;-91
2024/04/08 12:49:57;;;;;;;5.07;3.08;;;19.80;98.80;;;;;;5093263;28;20036;-88
2024/04/08 12:52:26;;;;;;;3.60;2.80;;;19.80;98.80;;;;;;5070218;28;20029;-88
2024/04/08 12:54:56;;;;;;;2.90;2.60;;;19.80;98.90;;;;;;5077246;28;20025;-91
2024/04/08 12:57:24;;;;;;;;;;;19.80;98.90;;;;;;5074524;28;20032;-90
2024/04/08 12:59:50;;;;;;;3.80;2.35;;;19.80;99.00;;;;;;5080744;28;19949;-89